Time;durP1;ratioP1;P1;durP2;ratioP2;P2;SDS_P1;SDS_P2;PMS_P1;PMS_P2;Temp;Humidity;BMP_temperature;BMP_pressure;BME280_temperature;BME280_humidity;BME280_pressure;Samples;Min_cycle;Max_cycle;Signal;HPM_P1;HPM_P2
2022/03/22 00:02:10;;;;;;;19.95;6.97;;;;;;;;;;5089482;28;20050;-73
2022/03/22 00:04:38;;;;;;;14.75;7.28;;;;;;;;;;5089720;28;20024;-73
2022/03/22 00:07:04;;;;;;;20.83;6.93;;;;;;;;;;5090039;28;20024;-73
2022/03/22 00:09:32;;;;;;;14.18;6.38;;;;;;;;;;5091531;28;20430;-73
2022/03/22 00:11:58;;;;;;;15.40;6.57;;;;;;;;;;5090071;28;20027;-73
2022/03/22 00:14:25;;;;;;;18.35;6.72;;;;;;;;;;5092969;28;20034;-73
2022/03/22 00:16:53;;;;;;;20.98;7.35;;;;;;;;;;5093626;28;20381;-73
2022/03/22 00:19:20;;;;;;;19.63;6.65;;;;;;;;;;5093784;28;20016;-73
2022/03/22 00:21:46;;;;;;;23.58;7.00;;;;;;;;;;5092975;28;20024;-73
2022/03/22 00:24:13;;;;;;;14.82;7.00;;;;;;;;;;5093073;28;20407;-73
2022/03/22 00:26:39;;;;;;;14.02;6.88;;;;;;;;;;5093521;28;20012;-73
2022/03/22 00:29:05;;;;;;;20.30;6.28;;;;;;;;;;5092031;28;20033;-73
2022/03/22 00:31:32;;;;;;;16.17;6.80;;;;;;;;;;5093784;28;20391;-72
2022/03/22 00:33:58;;;;;;;21.05;7.18;;;;;;;;;;5093493;28;20028;-73
2022/03/22 00:36:25;;;;;;;15.52;6.60;;;;;;;;;;5095751;28;20031;-73
2022/03/22 00:38:51;;;;;;;14.73;7.20;;;;;;;;;;5092923;28;20030;-73
2022/03/22 00:41:19;;;;;;;16.73;7.22;;;;;;;;;;5093472;28;20080;-72
2022/03/22 00:43:46;;;;;;;15.32;7.30;;;;;;;;;;5093385;28;20068;-73
2022/03/22 00:46:12;;;;;;;17.48;7.88;;;;;;;;;;5093180;28;20031;-74
2022/03/22 00:48:40;;;;;;;18.55;7.20;;;;;;;;;;5093345;28;20487;-73
2022/03/22 00:51:07;;;;;;;13.18;7.47;;;;;;;;;;5094168;28;20043;-73
2022/03/22 00:53:33;;;;;;;18.50;7.30;;;;;;;;;;5092876;28;20032;-73
2022/03/22 00:56:02;;;;;;;17.52;7.43;;;;;;;;;;5092889;28;20219;-73
2022/03/22 00:58:29;;;;;;;16.10;7.03;;;;;;;;;;5093183;28;20264;-73
2022/03/22 01:00:56;;;;;;;20.25;7.78;;;;;;;;;;5092887;28;22174;-73
2022/03/22 01:03:22;;;;;;;14.65;7.75;;;;;;;;;;5094736;28;20412;-73
2022/03/22 01:05:50;;;;;;;17.65;6.68;;;;;;;;;;5092941;28;20016;-73
2022/03/22 01:08:17;;;;;;;20.88;7.60;;;;;;;;;;5089806;28;20026;-73
2022/03/22 01:10:51;;;;;;;15.05;7.40;;;;;;;;;;5093112;28;20023;-73
2022/03/22 01:13:22;;;;;;;17.50;7.90;;;;;;;;;;5091531;28;20016;-73
2022/03/22 01:15:49;;;;;;;15.50;7.23;;;;;;;;;;5092711;28;20473;-73
2022/03/22 01:18:16;;;;;;;22.73;7.70;;;;;;;;;;5094955;28;20032;-73
2022/03/22 01:20:44;;;;;;;19.02;7.40;;;;;;;;;;5092162;28;20083;-72
2022/03/22 01:23:11;;;;;;;16.58;7.38;;;;;;;;;;5092312;28;20032;-73
2022/03/22 01:25:38;;;;;;;14.75;7.00;;;;;;;;;;5092103;28;20041;-73
2022/03/22 01:28:05;;;;;;;17.27;7.60;;;;;;;;;;5092436;28;20382;-73
2022/03/22 01:30:32;;;;;;;14.02;7.45;;;;;;;;;;5094625;28;20016;-72
2022/03/22 01:32:58;;;;;;;21.70;7.45;;;;;;;;;;5091335;28;20038;-73
2022/03/22 01:35:26;;;;;;;13.32;7.95;;;;;;;;;;5091781;28;20148;-73
2022/03/22 01:37:53;;;;;;;22.52;7.95;;;;;;;;;;5092192;28;20022;-73
2022/03/22 01:40:21;;;;;;;18.45;8.07;;;;;;;;;;5092280;28;20531;-73
2022/03/22 01:42:48;;;;;;;17.95;8.32;;;;;;;;;;5092201;28;20401;-73
2022/03/22 01:45:15;;;;;;;24.88;7.68;;;;;;;;;;5092450;28;20026;-73
2022/03/22 01:47:43;;;;;;;16.58;8.27;;;;;;;;;;5090458;28;20030;-73
2022/03/22 01:50:11;;;;;;;20.38;8.23;;;;;;;;;;5091678;28;20443;-73
2022/03/22 01:52:43;;;;;;;20.88;8.50;;;;;;;;;;5091648;28;20522;-73
2022/03/22 01:55:14;;;;;;;16.95;8.20;;;;;;;;;;5091985;28;20049;-73
2022/03/22 01:57:41;;;;;;;22.20;8.55;;;;;;;;;;5092918;28;20032;-73
2022/03/22 02:00:09;;;;;;;21.42;8.90;;;;;;;;;;5092953;28;20388;-73
2022/03/22 02:08:08;;;;;;;19.20;9.25;;;;;;;;;;5091591;28;20024;-73
2022/03/22 02:10:34;;;;;;;18.15;8.98;;;;;;;;;;5091761;28;20050;-73
2022/03/22 02:13:01;;;;;;;15.93;9.05;;;;;;;;;;5091526;28;20023;-73
2022/03/22 02:15:28;;;;;;;19.40;7.50;;;;;;;;;;5093498;28;20039;-73
2022/03/22 02:17:54;;;;;;;16.13;7.97;;;;;;;;;;5091534;28;20024;-73
2022/03/22 02:20:20;;;;;;;22.17;8.60;;;;;;;;;;5090971;28;20399;-73
2022/03/22 02:22:47;;;;;;;16.55;9.20;;;;;;;;;;5091338;28;20044;-73
2022/03/22 02:25:15;;;;;;;21.00;8.32;;;;;;;;;;5089975;28;20021;-73
2022/03/22 02:27:44;;;;;;;16.20;8.48;;;;;;;;;;5092227;28;20038;-73
2022/03/22 02:30:12;;;;;;;17.00;8.50;;;;;;;;;;5092843;28;20485;-73
2022/03/22 02:32:38;;;;;;;17.98;7.63;;;;;;;;;;5091386;28;20028;-73
2022/03/22 02:35:05;;;;;;;19.65;8.68;;;;;;;;;;5090356;28;20084;-73
2022/03/22 02:37:32;;;;;;;16.77;8.02;;;;;;;;;;5090619;28;20060;-73
2022/03/22 02:39:58;;;;;;;15.68;8.38;;;;;;;;;;5089612;28;20024;-73
2022/03/22 02:42:25;;;;;;;23.65;8.50;;;;;;;;;;5093171;28;20042;-73
2022/03/22 02:44:51;;;;;;;17.08;8.32;;;;;;;;;;5090827;28;20023;-73
2022/03/22 02:47:17;;;;;;;19.73;8.98;;;;;;;;;;5089890;28;20068;-73
2022/03/22 02:49:44;;;;;;;19.13;9.43;;;;;;;;;;5090362;28;20022;-73
2022/03/22 02:52:10;;;;;;;17.90;8.65;;;;;;;;;;5090886;28;20040;-73
2022/03/22 02:54:37;;;;;;;17.17;8.88;;;;;;;;;;5092129;28;20035;-72
2022/03/22 02:57:03;;;;;;;14.70;8.07;;;;;;;;;;5091451;28;20020;-73
2022/03/22 02:59:29;;;;;;;13.85;8.27;;;;;;;;;;5090542;28;20381;-73
2022/03/22 03:01:57;;;;;;;18.98;8.57;;;;;;;;;;5090715;28;20028;-73
2022/03/22 03:04:24;;;;;;;15.52;8.18;;;;;;;;;;5088753;28;20400;-72
2022/03/22 03:06:50;;;;;;;13.05;6.47;;;;;;;;;;5090571;28;20030;-73
2022/03/22 03:09:17;;;;;;;12.25;7.07;;;;;;;;;;5092525;28;20028;-73
2022/03/22 03:11:43;;;;;;;12.00;7.10;;;;;;;;;;5089298;28;20049;-73
2022/03/22 03:16:54;;;;;;;15.70;7.80;;;;;;;;;;5089974;28;20016;-73
2022/03/22 03:19:21;;;;;;;19.88;8.60;;;;;;;;;;5090288;28;20036;-73
2022/03/22 03:21:47;;;;;;;18.23;9.70;;;;;;;;;;5090738;28;20050;-73
2022/03/22 03:24:14;;;;;;;19.83;9.15;;;;;;;;;;5092387;28;20080;-73
2022/03/22 03:26:41;;;;;;;22.08;9.07;;;;;;;;;;5090078;28;20031;-73
2022/03/22 03:29:09;;;;;;;22.38;9.35;;;;;;;;;;5090161;28;20024;-73
2022/03/22 03:31:35;;;;;;;24.20;10.15;;;;;;;;;;5089847;28;20022;-73
2022/03/22 03:34:02;;;;;;;24.67;9.10;;;;;;;;;;5089330;28;20023;-73
2022/03/22 03:36:28;;;;;;;25.27;9.45;;;;;;;;;;5087888;28;20020;-73
2022/03/22 03:38:55;;;;;;;19.45;8.88;;;;;;;;;;5089986;28;20028;-73
2022/03/22 03:47:04;;;;;;;19.40;9.50;;;;;;;;;;5089352;28;20028;-73
2022/03/22 03:49:50;;;;;;;20.63;9.68;;;;;;;;;;5089974;28;20042;-73
2022/03/22 03:52:18;;;;;;;14.07;8.88;;;;;;;;;;5075843;28;20055;-73
2022/03/22 03:54:45;;;;;;;17.63;8.98;;;;;;;;;;5090373;28;20030;-73
2022/03/22 03:57:12;;;;;;;15.20;8.43;;;;;;;;;;5091778;28;20024;-73
2022/03/22 03:59:39;;;;;;;18.25;9.48;;;;;;;;;;5089768;28;20024;-73
2022/03/22 04:02:06;;;;;;;21.70;8.15;;;;;;;;;;5089356;28;20035;-73
2022/03/22 04:04:35;;;;;;;11.30;8.15;;;;;;;;;;5089774;28;20028;-73
2022/03/22 04:07:02;;;;;;;13.88;8.60;;;;;;;;;;5073927;28;20021;-73
2022/03/22 04:09:28;;;;;;;20.48;8.73;;;;;;;;;;5087499;28;20017;-73
2022/03/22 04:11:54;;;;;;;14.70;8.48;;;;;;;;;;5089726;28;20040;-73
2022/03/22 04:14:22;;;;;;;19.25;8.38;;;;;;;;;;5089620;28;20032;-73
2022/03/22 04:16:50;;;;;;;19.60;9.63;;;;;;;;;;5089200;28;20021;-73
2022/03/22 04:19:16;;;;;;;16.77;9.15;;;;;;;;;;5089979;28;20012;-73
2022/03/22 04:21:43;;;;;;;16.50;8.30;;;;;;;;;;5090546;28;20032;-73
2022/03/22 04:24:11;;;;;;;17.92;9.13;;;;;;;;;;5089411;28;20034;-73
2022/03/22 04:26:38;;;;;;;15.57;8.60;;;;;;;;;;5089451;28;20035;-72
2022/03/22 04:34:36;;;;;;;17.88;9.00;;;;;;;;;;5089619;27;20575;-73
2022/03/22 04:37:02;;;;;;;21.27;9.18;;;;;;;;;;5089637;28;20381;-73
2022/03/22 04:39:30;;;;;;;19.42;8.35;;;;;;;;;;5091446;28;20493;-73
2022/03/22 04:41:57;;;;;;;17.80;8.85;;;;;;;;;;5089589;28;20037;-73
2022/03/22 04:44:24;;;;;;;17.38;8.52;;;;;;;;;;5088961;28;20101;-73
2022/03/22 04:46:51;;;;;;;19.45;8.80;;;;;;;;;;5089308;28;20016;-73
2022/03/22 04:49:17;;;;;;;16.67;8.10;;;;;;;;;;5089479;28;20024;-73
2022/03/22 04:57:15;;;;;;;15.93;7.20;;;;;;;;;;5089373;28;20036;-73
2022/03/22 04:59:42;;;;;;;17.05;7.45;;;;;;;;;;5090700;28;20507;-73
2022/03/22 05:02:09;;;;;;;16.83;7.72;;;;;;;;;;5091376;28;20040;-73
2022/03/22 05:04:36;;;;;;;16.63;7.50;;;;;;;;;;5092885;28;20396;-73
2022/03/22 05:07:02;;;;;;;20.15;8.32;;;;;;;;;;5092744;28;20498;-73
2022/03/22 05:09:28;;;;;;;20.27;8.88;;;;;;;;;;5090499;28;20024;-73
2022/03/22 05:11:55;;;;;;;13.18;7.45;;;;;;;;;;5092951;28;20024;-73
2022/03/22 05:14:22;;;;;;;17.02;8.25;;;;;;;;;;5091124;28;20046;-73
2022/03/22 05:16:48;;;;;;;15.82;8.20;;;;;;;;;;5092631;28;20022;-73
2022/03/22 05:19:15;;;;;;;17.40;7.45;;;;;;;;;;5092582;28;20028;-73
2022/03/22 05:21:42;;;;;;;13.68;7.15;;;;;;;;;;5093382;28;20030;-73
2022/03/22 05:24:08;;;;;;;18.88;7.68;;;;;;;;;;5092672;28;20032;-72
2022/03/22 05:26:35;;;;;;;16.45;8.05;;;;;;;;;;5092281;28;20018;-73
2022/03/22 05:29:05;;;;;;;21.60;8.40;;;;;;;;;;5091875;28;20084;-73
2022/03/22 05:31:35;;;;;;;14.68;7.72;;;;;;;;;;5092438;28;20023;-73
2022/03/22 05:34:02;;;;;;;14.30;7.60;;;;;;;;;;5076435;28;20027;-73
2022/03/22 05:36:28;;;;;;;14.93;7.88;;;;;;;;;;5094328;28;20022;-73
2022/03/22 05:38:55;;;;;;;20.63;7.80;;;;;;;;;;5092268;28;20551;-73
2022/03/22 05:41:22;;;;;;;22.58;8.38;;;;;;;;;;5090636;28;20028;-73
2022/03/22 05:43:49;;;;;;;12.98;7.13;;;;;;;;;;5091771;28;20036;-73
2022/03/22 05:46:16;;;;;;;20.05;8.07;;;;;;;;;;5092361;28;20032;-73
2022/03/22 05:48:49;;;;;;;13.27;8.05;;;;;;;;;;5092883;28;20028;-73
2022/03/22 05:51:19;;;;;;;18.85;8.43;;;;;;;;;;5092267;28;20508;-73
2022/03/22 05:53:46;;;;;;;12.13;7.50;;;;;;;;;;5091919;28;20491;-73
2022/03/22 05:56:12;;;;;;;13.50;7.50;;;;;;;;;;5091523;28;20496;-72
2022/03/22 05:58:39;;;;;;;17.90;7.90;;;;;;;;;;5091837;28;20089;-73
2022/03/22 06:01:08;;;;;;;16.48;8.02;;;;;;;;;;5091920;28;20376;-73
2022/03/22 06:03:35;;;;;;;15.90;8.15;;;;;;;;;;5093179;28;20040;-73
2022/03/22 06:06:01;;;;;;;19.75;7.80;;;;;;;;;;5090960;28;20036;-73
2022/03/22 06:08:29;;;;;;;20.20;8.35;;;;;;;;;;5090627;28;20059;-73
2022/03/22 06:10:56;;;;;;;20.00;7.88;;;;;;;;;;5091345;28;20562;-73
2022/03/22 06:13:22;;;;;;;19.83;9.07;;;;;;;;;;5091909;28;20019;-73
2022/03/22 06:15:49;;;;;;;17.65;7.82;;;;;;;;;;5091911;28;20035;-73
2022/03/22 06:18:15;;;;;;;16.10;8.73;;;;;;;;;;5093782;28;20028;-73
2022/03/22 06:20:42;;;;;;;16.70;8.88;;;;;;;;;;5089863;28;20012;-73
2022/03/22 06:23:10;;;;;;;16.50;8.60;;;;;;;;;;5091495;28;20032;-73
2022/03/22 06:25:37;;;;;;;25.88;8.70;;;;;;;;;;5090922;28;20035;-73
2022/03/22 06:28:04;;;;;;;15.73;8.10;;;;;;;;;;5091352;28;20039;-73
2022/03/22 06:30:31;;;;;;;16.27;8.27;;;;;;;;;;5089642;28;20024;-73
2022/03/22 06:33:01;;;;;;;16.25;8.32;;;;;;;;;;5089932;28;20032;-73
2022/03/22 06:35:32;;;;;;;14.55;7.85;;;;;;;;;;5091056;28;20016;-73
2022/03/22 06:37:59;;;;;;;15.10;8.03;;;;;;;;;;5091191;28;20020;-73
2022/03/22 06:40:29;;;;;;;18.60;7.78;;;;;;;;;;5091168;28;20038;-73
2022/03/22 06:42:56;;;;;;;15.32;7.53;;;;;;;;;;5089787;28;20073;-73
2022/03/22 06:45:23;;;;;;;19.08;7.97;;;;;;;;;;5092989;28;20026;-73
2022/03/22 06:47:49;;;;;;;14.32;7.65;;;;;;;;;;5089697;28;20020;-73
2022/03/22 06:50:17;;;;;;;13.27;7.82;;;;;;;;;;5090586;28;20020;-73
2022/03/22 06:52:43;;;;;;;15.50;7.40;;;;;;;;;;5089771;28;20048;-73
2022/03/22 06:55:10;;;;;;;10.57;7.03;;;;;;;;;;5090186;28;20020;-73
2022/03/22 06:57:37;;;;;;;18.48;7.90;;;;;;;;;;5091811;28;20028;-73
2022/03/22 07:00:05;;;;;;;14.60;7.20;;;;;;;;;;5089893;28;20020;-73
2022/03/22 07:02:32;;;;;;;13.30;7.00;;;;;;;;;;5089148;28;20404;-73
2022/03/22 07:04:58;;;;;;;14.00;6.90;;;;;;;;;;5089563;28;20020;-73
2022/03/22 07:07:25;;;;;;;16.88;6.60;;;;;;;;;;5090069;28;20026;-73
2022/03/22 07:09:51;;;;;;;13.73;6.70;;;;;;;;;;5089987;28;20027;-72
2022/03/22 07:12:19;;;;;;;16.52;7.22;;;;;;;;;;5096221;28;20032;-73
2022/03/22 07:14:45;;;;;;;14.25;7.20;;;;;;;;;;5093617;28;20031;-73
2022/03/22 07:17:11;;;;;;;11.88;6.63;;;;;;;;;;5090711;28;20050;-73
2022/03/22 07:19:38;;;;;;;12.68;6.90;;;;;;;;;;5091523;28;20092;-73
2022/03/22 07:22:05;;;;;;;10.45;6.60;;;;;;;;;;5093392;28;20030;-73
2022/03/22 07:24:31;;;;;;;16.95;6.93;;;;;;;;;;5091613;28;20489;-73
2022/03/22 07:26:58;;;;;;;13.90;6.88;;;;;;;;;;5088321;28;20076;-73
2022/03/22 07:29:24;;;;;;;13.65;7.43;;;;;;;;;;5088645;28;20020;-73
2022/03/22 07:31:51;;;;;;;14.80;6.55;;;;;;;;;;5089682;28;20034;-73
2022/03/22 07:34:18;;;;;;;11.18;6.90;;;;;;;;;;5089665;28;20101;-73
2022/03/22 07:36:45;;;;;;;10.90;6.50;;;;;;;;;;5090546;28;20028;-73
2022/03/22 07:39:12;;;;;;;18.77;6.90;;;;;;;;;;5088594;28;20370;-73
2022/03/22 07:41:39;;;;;;;10.82;5.82;;;;;;;;;;5089589;28;20016;-72
2022/03/22 07:44:12;;;;;;;15.20;6.43;;;;;;;;;;5092919;28;20028;-73
2022/03/22 07:46:38;;;;;;;13.57;5.88;;;;;;;;;;5097857;28;20024;-73
2022/03/22 07:54:35;;;;;;;11.18;5.97;;;;;;;;;;5087074;28;20032;-73
2022/03/22 07:57:02;;;;;;;12.73;5.60;;;;;;;;;;5090475;28;20030;-71
2022/03/22 07:59:28;;;;;;;10.25;5.75;;;;;;;;;;5088921;28;20016;-71
2022/03/22 08:01:55;;;;;;;13.90;5.30;;;;;;;;;;5090372;28;20044;-71
2022/03/22 08:04:22;;;;;;;10.50;5.68;;;;;;;;;;5089291;28;20042;-70
2022/03/22 08:06:48;;;;;;;9.30;5.25;;;;;;;;;;5090363;28;20035;-71
2022/03/22 08:09:15;;;;;;;10.30;5.32;;;;;;;;;;5093582;28;20024;-71
2022/03/22 08:11:42;;;;;;;10.50;5.15;;;;;;;;;;5095947;28;20011;-71
2022/03/22 08:14:09;;;;;;;12.15;5.55;;;;;;;;;;5096201;28;20030;-71
2022/03/22 08:16:36;;;;;;;8.98;5.70;;;;;;;;;;5095990;28;20022;-71
2022/03/22 08:19:05;;;;;;;9.43;5.40;;;;;;;;;;5079053;28;20392;-71
2022/03/22 08:21:33;;;;;;;10.55;5.57;;;;;;;;;;5101104;28;20031;-71
2022/03/22 08:24:00;;;;;;;9.65;5.43;;;;;;;;;;5070898;28;20044;-71
2022/03/22 08:26:27;;;;;;;10.30;5.38;;;;;;;;;;5096186;28;20024;-71
2022/03/22 08:28:54;;;;;;;10.70;5.63;;;;;;;;;;5095044;28;20046;-71
2022/03/22 08:31:21;;;;;;;11.45;5.50;;;;;;;;;;5082041;28;20489;-71
2022/03/22 08:33:47;;;;;;;7.65;4.88;;;;;;;;;;5092263;28;20019;-71
2022/03/22 08:36:14;;;;;;;9.55;5.30;;;;;;;;;;5091208;28;20028;-71
2022/03/22 08:38:40;;;;;;;7.78;5.15;;;;;;;;;;5092364;28;20020;-71
2022/03/22 08:41:06;;;;;;;9.55;4.57;;;;;;;;;;5091856;28;20020;-71
2022/03/22 08:43:33;;;;;;;10.90;4.90;;;;;;;;;;5091892;28;20032;-71
2022/03/22 08:46:00;;;;;;;11.55;4.50;;;;;;;;;;5094432;28;20019;-71
2022/03/22 08:48:27;;;;;;;9.18;5.18;;;;;;;;;;5093724;28;20032;-71
2022/03/22 08:50:53;;;;;;;10.70;4.82;;;;;;;;;;5091158;28;20016;-71
2022/03/22 08:53:20;;;;;;;9.27;4.78;;;;;;;;;;5073061;28;20032;-71
2022/03/22 08:55:48;;;;;;;9.60;4.95;;;;;;;;;;5090440;28;20411;-71
2022/03/22 08:58:16;;;;;;;8.55;4.10;;;;;;;;;;5073259;28;20028;-71
2022/03/22 09:00:45;;;;;;;9.43;4.38;;;;;;;;;;5106634;28;20032;-71
2022/03/22 09:03:11;;;;;;;8.82;4.88;;;;;;;;;;5103331;28;20036;-71
2022/03/22 09:08:26;;;;;;;8.38;4.38;;;;;;;;;;5090937;28;20020;-71
2022/03/22 09:10:52;;;;;;;9.75;5.05;;;;;;;;;;5073332;28;20020;-71
2022/03/22 09:13:19;;;;;;;7.85;4.68;;;;;;;;;;5096774;28;20469;-71
2022/03/22 09:15:46;;;;;;;11.63;5.28;;;;;;;;;;5096427;28;20030;-71
2022/03/22 09:18:13;;;;;;;11.75;4.80;;;;;;;;;;5092541;28;20481;-71
2022/03/22 09:20:41;;;;;;;12.27;5.07;;;;;;;;;;5090997;28;20237;-71
2022/03/22 09:23:08;;;;;;;9.25;5.18;;;;;;;;;;5094841;28;20385;-70
2022/03/22 09:25:35;;;;;;;10.32;4.22;;;;;;;;;;5090848;28;20038;-71
2022/03/22 09:28:04;;;;;;;7.60;4.43;;;;;;;;;;5092315;28;20023;-71
2022/03/22 09:30:31;;;;;;;8.57;4.63;;;;;;;;;;5101546;28;20020;-71
2022/03/22 09:33:01;;;;;;;7.60;4.30;;;;;;;;;;5073220;28;20044;-71
2022/03/22 09:35:29;;;;;;;11.48;4.53;;;;;;;;;;5085406;28;20473;-71
2022/03/22 09:37:55;;;;;;;6.53;4.10;;;;;;;;;;5089293;28;20032;-71
2022/03/22 09:40:22;;;;;;;7.65;4.65;;;;;;;;;;5072847;28;20021;-71
2022/03/22 09:42:48;;;;;;;7.07;3.55;;;;;;;;;;5090914;28;20032;-71
2022/03/22 09:45:19;;;;;;;10.45;3.78;;;;;;;;;;5090642;28;20028;-71
2022/03/22 09:47:46;;;;;;;7.05;4.35;;;;;;;;;;5092407;28;20073;-71
2022/03/22 09:50:14;;;;;;;7.95;4.05;;;;;;;;;;5089488;28;20480;-71
2022/03/22 09:52:41;;;;;;;6.60;4.53;;;;;;;;;;5089231;28;20036;-71
2022/03/22 09:55:08;;;;;;;11.38;4.28;;;;;;;;;;5090044;28;20033;-71
2022/03/22 09:57:36;;;;;;;7.97;4.22;;;;;;;;;;5090762;28;20031;-71
2022/03/22 10:00:03;;;;;;;7.18;4.00;;;;;;;;;;5089570;28;20463;-71
2022/03/22 10:02:34;;;;;;;7.28;4.13;;;;;;;;;;5090612;28;20032;-70
2022/03/22 10:05:00;;;;;;;9.50;4.25;;;;;;;;;;5088338;28;20023;-70
2022/03/22 10:07:30;;;;;;;6.75;4.28;;;;;;;;;;5089962;28;20028;-71
2022/03/22 10:10:01;;;;;;;10.35;4.85;;;;;;;;;;5090220;28;20097;-70
2022/03/22 10:12:32;;;;;;;8.55;4.93;;;;;;;;;;5091891;28;20054;-71
2022/03/22 10:15:12;;;;;;;15.90;4.88;;;;;;;;;;5091951;28;20031;-71
2022/03/22 10:17:39;;;;;;;7.55;4.35;;;;;;;;;;5088932;28;20036;-71
2022/03/22 10:20:06;;;;;;;8.60;4.90;;;;;;;;;;5091651;28;20065;-71
2022/03/22 10:22:34;;;;;;;5.20;3.92;;;;;;;;;;5074922;28;20035;-71
2022/03/22 10:25:01;;;;;;;7.53;4.90;;;;;;;;;;5089923;28;20028;-71
2022/03/22 10:27:27;;;;;;;10.98;4.80;;;;;;;;;;5094252;28;20027;-71
2022/03/22 10:29:54;;;;;;;7.53;5.00;;;;;;;;;;5088632;28;20028;-71
2022/03/22 10:32:34;;;;;;;7.40;4.40;;;;;;;;;;5088544;28;20016;-71
2022/03/22 10:35:10;;;;;;;8.10;4.80;;;;;;;;;;5089908;28;20028;-71
2022/03/22 10:37:37;;;;;;;7.43;4.93;;;;;;;;;;5072725;28;20027;-70
2022/03/22 10:40:04;;;;;;;11.88;4.75;;;;;;;;;;5089913;28;20029;-71
2022/03/22 10:42:32;;;;;;;6.82;4.15;;;;;;;;;;5091546;28;20016;-71
2022/03/22 10:44:59;;;;;;;5.93;4.40;;;;;;;;;;5089405;28;20020;-71
2022/03/22 10:47:26;;;;;;;7.55;5.20;;;;;;;;;;5087818;28;20028;-71
2022/03/22 10:50:05;;;;;;;6.05;4.07;;;;;;;;;;5085820;28;20024;-71
2022/03/22 10:52:40;;;;;;;6.47;4.00;;;;;;;;;;5077191;28;20501;-71
2022/03/22 10:55:07;;;;;;;7.90;3.28;;;;;;;;;;5073552;28;20024;-71
2022/03/22 10:57:37;;;;;;;6.43;3.70;;;;;;;;;;5089518;28;20077;-71
2022/03/22 11:00:04;;;;;;;5.03;3.75;;;;;;;;;;5087999;28;20081;-72
2022/03/22 11:02:34;;;;;;;7.72;4.53;;;;;;;;;;5088276;28;20036;-71
2022/03/22 11:05:03;;;;;;;6.85;3.85;;;;;;;;;;5093196;28;20557;-71
2022/03/22 11:07:34;;;;;;;6.70;3.65;;;;;;;;;;5089042;28;20028;-71
2022/03/22 11:10:01;;;;;;;6.13;3.85;;;;;;;;;;5087637;28;20731;-71
2022/03/22 11:12:27;;;;;;;6.47;4.03;;;;;;;;;;5090425;28;20038;-71
2022/03/22 11:14:58;;;;;;;5.78;4.03;;;;;;;;;;5089906;28;20024;-71
2022/03/22 11:17:27;;;;;;;8.15;3.83;;;;;;;;;;5088150;28;20412;-70
2022/03/22 11:19:53;;;;;;;5.78;4.45;;;;;;;;;;5088864;28;20031;-71
2022/03/22 11:22:19;;;;;;;8.20;4.30;;;;;;;;;;5088635;28;20026;-73
2022/03/22 11:24:47;;;;;;;8.73;4.78;;;;;;;;;;5089575;28;20042;-71
2022/03/22 11:27:14;;;;;;;4.60;3.17;;;;;;;;;;5089178;28;20032;-71
2022/03/22 11:29:41;;;;;;;8.18;3.85;;;;;;;;;;5088280;28;20024;-71
2022/03/22 11:34:58;;;;;;;10.98;4.60;;;;;;;;;;5087525;28;20027;-71
2022/03/22 11:37:31;;;;;;;8.32;3.90;;;;;;;;;;5088223;28;20024;-71
2022/03/22 11:42:52;;;;;;;7.75;4.60;;;;;;;;;;5086978;28;20028;-71
2022/03/22 11:45:19;;;;;;;11.13;5.10;;;;;;;;;;5088907;28;20028;-71
2022/03/22 11:47:49;;;;;;;7.70;3.85;;;;;;;;;;5088988;28;20504;-71
2022/03/22 11:50:18;;;;;;;7.00;4.60;;;;;;;;;;5088204;28;20035;-71
2022/03/22 11:52:45;;;;;;;6.47;4.10;;;;;;;;;;5085696;28;20051;-71
2022/03/22 11:55:22;;;;;;;8.73;4.40;;;;;;;;;;5089489;28;20400;-71
2022/03/22 11:57:50;;;;;;;6.95;3.80;;;;;;;;;;5070363;28;20074;-71
2022/03/22 12:00:23;;;;;;;7.60;4.30;;;;;;;;;;5068856;28;20065;-71
2022/03/22 12:02:54;;;;;;;7.35;4.10;;;;;;;;;;5088104;28;20050;-71
2022/03/22 12:05:22;;;;;;;5.88;4.10;;;;;;;;;;5088348;28;20392;-71
2022/03/22 12:07:50;;;;;;;6.15;4.13;;;;;;;;;;5089296;28;20032;-71
2022/03/22 12:10:18;;;;;;;8.23;3.90;;;;;;;;;;5092428;28;20085;-71
2022/03/22 12:12:52;;;;;;;7.65;3.40;;;;;;;;;;5093367;28;20028;-71
2022/03/22 12:15:20;;;;;;;9.15;3.70;;;;;;;;;;5092389;28;20068;-70
2022/03/22 12:17:47;;;;;;;7.28;3.85;;;;;;;;;;5092464;28;20031;-71
2022/03/22 12:20:15;;;;;;;7.07;4.00;;;;;;;;;;5092717;28;20042;-71
2022/03/22 12:22:43;;;;;;;4.57;3.28;;;;;;;;;;5092245;28;20035;-71
2022/03/22 12:25:15;;;;;;;7.95;3.78;;;;;;;;;;5092524;28;20043;-71
2022/03/22 12:27:51;;;;;;;5.95;3.60;;;;;;;;;;5093104;28;20028;-72
2022/03/22 12:30:20;;;;;;;7.38;4.00;;;;;;;;;;5094440;28;20101;-71
2022/03/22 12:32:49;;;;;;;6.93;3.72;;;;;;;;;;5092166;28;20024;-71
2022/03/22 12:35:15;;;;;;;8.10;3.17;;;;;;;;;;5077378;28;20032;-71
2022/03/22 12:37:42;;;;;;;6.45;4.07;;;;;;;;;;5098783;28;20036;-72
2022/03/22 12:40:08;;;;;;;7.68;4.10;;;;;;;;;;5092642;28;20027;-70
2022/03/22 12:42:34;;;;;;;4.70;3.38;;;;;;;;;;5103366;28;20035;-71
2022/03/22 12:45:01;;;;;;;6.65;4.15;;;;;;;;;;5074255;28;20022;-72
2022/03/22 12:47:27;;;;;;;6.18;4.07;;;;;;;;;;5092894;28;20403;-71
2022/03/22 12:49:54;;;;;;;7.75;4.43;;;;;;;;;;5080505;28;20032;-72
2022/03/22 12:52:20;;;;;;;6.93;4.78;;;;;;;;;;5091498;28;20032;-71
2022/03/22 12:54:47;;;;;;;8.45;3.97;;;;;;;;;;5133886;22;20483;-73
2022/03/22 12:57:15;;;;;;;8.13;4.50;;;;;;;;;;5056367;28;20029;-73
2022/03/22 12:59:42;;;;;;;6.35;4.45;;;;;;;;;;5080479;28;20027;-71
2022/03/22 13:02:09;;;;;;;6.88;4.20;;;;;;;;;;5083945;28;20016;-71
2022/03/22 13:04:37;;;;;;;8.82;3.35;;;;;;;;;;5077064;28;20012;-72
2022/03/22 13:07:08;;;;;;;6.25;3.65;;;;;;;;;;5056442;28;20485;-71
2022/03/22 13:12:20;;;;;;;6.25;3.58;;;;;;;;;;5075382;28;20416;-71
2022/03/22 13:15:04;;;;;;;5.10;3.85;;;;;;;;;;5081852;28;20024;-71
2022/03/22 13:17:31;;;;;;;6.53;4.03;;;;;;;;;;5072874;28;20028;-71
2022/03/22 13:20:03;;;;;;;6.40;4.22;;;;;;;;;;5076220;28;20042;-71
2022/03/22 13:22:30;;;;;;;8.45;3.20;;;;;;;;;;5075735;28;20399;-71
2022/03/22 13:25:06;;;;;;;8.00;4.10;;;;;;;;;;5073444;28;20047;-74
2022/03/22 13:27:33;;;;;;;10.85;5.03;;;;;;;;;;5061904;28;20046;-73
2022/03/22 13:30:01;;;;;;;4.65;3.33;;;;;;;;;;5076273;28;20032;-73
2022/03/22 13:32:29;;;;;;;4.78;3.28;;;;;;;;;;5076399;28;20110;-74
2022/03/22 13:35:00;;;;;;;7.82;4.05;;;;;;;;;;5076422;28;20439;-73
2022/03/22 13:37:26;;;;;;;8.57;4.00;;;;;;;;;;5075104;28;20016;-73
2022/03/22 13:40:03;;;;;;;6.20;4.28;;;;;;;;;;5073718;28;20046;-74
2022/03/22 13:42:30;;;;;;;5.28;3.70;;;;;;;;;;5076846;28;20523;-73
2022/03/22 13:45:00;;;;;;;9.57;3.92;;;;;;;;;;5076721;28;20029;-73
2022/03/22 13:47:30;;;;;;;9.35;4.10;;;;;;;;;;5076319;28;20489;-73
2022/03/22 13:49:56;;;;;;;7.00;3.85;;;;;;;;;;5076481;28;20028;-74
2022/03/22 13:52:27;;;;;;;6.38;4.10;;;;;;;;;;5072707;28;20031;-73
2022/03/22 13:54:54;;;;;;;5.93;4.00;;;;;;;;;;5068183;28;20105;-73
2022/03/22 13:57:24;;;;;;;10.60;4.07;;;;;;;;;;5087091;28;20027;-73
2022/03/22 13:59:56;;;;;;;6.72;4.53;;;;;;;;;;5073250;28;20033;-73
2022/03/22 14:02:22;;;;;;;6.53;4.57;;;;;;;;;;5077323;28;20035;-74
2022/03/22 14:04:49;;;;;;;9.90;4.82;;;;;;;;;;5076638;28;20036;-71
2022/03/22 14:07:15;;;;;;;13.40;4.75;;;;;;;;;;5087692;28;20026;-73
2022/03/22 14:09:41;;;;;;;6.45;4.43;;;;;;;;;;5073790;28;20078;-73
2022/03/22 14:12:08;;;;;;;7.00;4.20;;;;;;;;;;5075294;28;20508;-73
2022/03/22 14:14:34;;;;;;;7.40;4.03;;;;;;;;;;5061275;28;20030;-74
2022/03/22 14:17:01;;;;;;;8.05;4.50;;;;;;;;;;5065894;28;20025;-74
2022/03/22 14:19:27;;;;;;;7.45;4.63;;;;;;;;;;5051638;28;20020;-74
2022/03/22 14:21:53;;;;;;;11.93;5.00;;;;;;;;;;5069571;28;20035;-74
2022/03/22 14:24:20;;;;;;;8.25;4.78;;;;;;;;;;5071460;28;20032;-73
2022/03/22 14:26:53;;;;;;;7.20;4.20;;;;;;;;;;5075535;28;20038;-74
2022/03/22 14:29:19;;;;;;;8.48;4.53;;;;;;;;;;5075121;28;20032;-75
2022/03/22 14:31:46;;;;;;;5.88;3.40;;;;;;;;;;5074513;28;20027;-74
2022/03/22 14:35:46;;;;;;;7.47;3.33;;;;;;;;;;5072865;28;20562;-74
2022/03/22 14:36:59;;;;;;;9.95;4.57;;;;;;;;;;5078026;28;20038;-74
2022/03/22 14:39:27;;;;;;;8.52;4.40;;;;;;;;;;5057719;28;20512;-74
2022/03/22 14:41:55;;;;;;;7.38;4.88;;;;;;;;;;5057646;28;20072;-74
2022/03/22 14:44:22;;;;;;;5.70;4.40;;;;;;;;;;5075396;28;20050;-74
2022/03/22 14:46:52;;;;;;;9.02;4.50;;;;;;;;;;5075258;28;20381;-74
2022/03/22 14:49:19;;;;;;;8.02;4.03;;;;;;;;;;5072502;28;20507;-73
2022/03/22 14:54:35;;;;;;;8.48;4.38;;;;;;;;;;5075482;28;20050;-74
2022/03/22 14:59:47;;;;;;;7.35;3.80;;;;;;;;;;5075199;28;20044;-74
2022/03/22 15:02:14;;;;;;;6.70;3.53;;;;;;;;;;5074966;28;20016;-73
2022/03/22 15:04:43;;;;;;;6.30;3.90;;;;;;;;;;5074921;28;20028;-74
2022/03/22 15:07:12;;;;;;;8.18;4.15;;;;;;;;;;5071118;28;20023;-74
2022/03/22 15:09:39;;;;;;;4.30;3.25;;;;;;;;;;5072529;28;20031;-74
2022/03/22 15:12:10;;;;;;;6.75;4.05;;;;;;;;;;5082713;28;20024;-73
2022/03/22 15:14:37;;;;;;;7.70;4.43;;;;;;;;;;5075053;28;20028;-74
2022/03/22 15:17:04;;;;;;;5.20;3.70;;;;;;;;;;5074534;28;20073;-74
2022/03/22 15:19:31;;;;;;;10.82;4.30;;;;;;;;;;5073848;28;20466;-74
2022/03/22 15:21:58;;;;;;;6.63;3.88;;;;;;;;;;5052964;28;20039;-74
2022/03/22 15:24:24;;;;;;;5.85;3.70;;;;;;;;;;5075249;28;20493;-74
2022/03/22 15:26:51;;;;;;;6.30;4.32;;;;;;;;;;5074519;28;20025;-74